createdAt,value
2022-11-17T00:00:41.920Z,98550.13
2022-11-17T00:03:13.570Z,98549.63
2022-11-17T00:05:40.412Z,98563.53
2022-11-17T00:08:07.103Z,98535.47
2022-11-17T00:10:33.956Z,98566.81
2022-11-17T00:13:19.136Z,98547.63
2022-11-17T00:15:45.927Z,98546.94
2022-11-17T00:18:31.340Z,98548.84
2022-11-17T00:21:16.664Z,98565.88
2022-11-17T00:23:50.834Z,98540.25
2022-11-17T00:26:25.732Z,98525.41
2022-11-17T00:29:00.448Z,98552.72
2022-11-17T00:31:47.700Z,98563.41
2022-11-17T00:34:23.952Z,98609.94
2022-11-17T00:36:53.526Z,98566.91
2022-11-17T00:39:22.920Z,98598.25
2022-11-17T00:41:50.290Z,98585.88
2022-11-17T00:44:17.868Z,98590.00
2022-11-17T00:46:44.660Z,98592.53
2022-11-17T00:49:12.147Z,98582.41
2022-11-17T00:51:38.941Z,98588.66
2022-11-17T00:54:07.326Z,98603.69
2022-11-17T00:56:34.230Z,98594.50
2022-11-17T00:59:01.188Z,98587.09
2022-11-17T01:01:28.233Z,98606.66
2022-11-17T01:04:03.610Z,98611.78
2022-11-17T01:06:33.840Z,98605.28
2022-11-17T01:09:02.617Z,98595.75
2022-11-17T01:11:29.955Z,98591.16
2022-11-17T01:13:59.056Z,98588.44
2022-11-17T01:16:26.794Z,98592.66
2022-11-17T01:18:54.017Z,98597.06
2022-11-17T01:21:24.106Z,98583.44
2022-11-17T01:23:53.805Z,98567.38
2022-11-17T01:26:29.369Z,98589.03
2022-11-17T01:28:57.105Z,98573.09
2022-11-17T01:31:29.628Z,98575.84
2022-11-17T01:33:57.314Z,98570.47
2022-11-17T01:36:27.476Z,98575.38
2022-11-17T01:38:54.972Z,98568.91
2022-11-17T01:41:27.596Z,98563.97
2022-11-17T01:43:59.472Z,98571.16
2022-11-17T01:46:26.105Z,98569.41
2022-11-17T01:48:57.779Z,98558.25
2022-11-17T01:51:25.451Z,98562.75
2022-11-17T01:53:52.743Z,98556.78
2022-11-17T01:56:27.175Z,98536.00
2022-11-17T01:59:01.083Z,98545.19
2022-11-17T02:01:27.955Z,98547.69
2022-11-17T02:03:54.832Z,98555.22
2022-11-17T02:06:35.457Z,98552.50
2022-11-17T02:09:04.625Z,98578.34
2022-11-17T02:11:36.208Z,98577.84
2022-11-17T02:14:05.565Z,98571.53
2022-11-17T02:16:32.438Z,98547.56
2022-11-17T02:18:59.301Z,98572.31
2022-11-17T02:21:50.547Z,98573.13
2022-11-17T02:24:31.756Z,98583.28
2022-11-17T02:27:23.076Z,98574.03
2022-11-17T02:30:06.583Z,98573.72
2022-11-17T02:32:41.718Z,98559.84
2022-11-17T02:35:44.047Z,98561.25
2022-11-17T02:38:10.616Z,98566.66
2022-11-17T02:41:08.176Z,98566.59
2022-11-17T02:44:02.286Z,98545.22
2022-11-17T02:46:32.255Z,98541.84
2022-11-17T02:49:05.174Z,98571.22
2022-11-17T02:51:34.804Z,98545.13
2022-11-17T02:54:02.254Z,98588.31
2022-11-17T02:56:28.944Z,98572.63
2022-11-17T02:59:00.635Z,98574.59
2022-11-17T03:01:39.287Z,98581.66
2022-11-17T03:04:22.419Z,98579.44
2022-11-17T03:06:52.461Z,98591.72
2022-11-17T03:09:30.421Z,98556.78
2022-11-17T03:12:09.296Z,98562.91
2022-11-17T03:15:09.088Z,98583.50
2022-11-17T03:17:58.264Z,98561.34
2022-11-17T03:20:31.366Z,98579.06
2022-11-17T03:23:18.237Z,98565.16
2022-11-17T03:25:53.341Z,98591.44
2022-11-17T03:28:26.056Z,98576.03
2022-11-17T03:30:54.204Z,98570.94
2022-11-17T03:33:24.879Z,98575.22
2022-11-17T03:36:05.478Z,98588.75
2022-11-17T03:38:37.497Z,98576.16
2022-11-17T03:41:08.088Z,98578.38
2022-11-17T03:43:36.335Z,98578.56
2022-11-17T03:46:08.815Z,98601.41
2022-11-17T03:48:42.862Z,98592.22
2022-11-17T03:51:19.158Z,98592.97
2022-11-17T03:53:47.713Z,98550.38
2022-11-17T03:56:39.846Z,98603.06
2022-11-17T03:59:22.682Z,98606.78
2022-11-17T04:01:49.468Z,98601.03
2022-11-17T04:04:18.199Z,98611.94
2022-11-17T04:06:44.885Z,98610.50
2022-11-17T04:09:11.613Z,98615.16
2022-11-17T04:11:57.272Z,98618.47
2022-11-17T04:14:42.532Z,98598.00
2022-11-17T04:17:09.301Z,98595.91
2022-11-17T04:19:35.982Z,98606.56
2022-11-17T04:22:02.605Z,98603.91
2022-11-17T04:24:29.424Z,98630.13
2022-11-17T04:27:14.996Z,98631.13
2022-11-17T04:29:41.667Z,98625.03
2022-11-17T04:32:08.315Z,98616.66
2022-11-17T04:34:35.028Z,98595.59
2022-11-17T04:37:06.927Z,98638.22
2022-11-17T04:39:37.732Z,98649.28
2022-11-17T04:42:04.973Z,98618.78
2022-11-17T04:44:32.336Z,98636.69
2022-11-17T04:46:59.660Z,98617.38
2022-11-17T04:49:26.313Z,98626.53
2022-11-17T04:51:54.142Z,98633.44
2022-11-17T04:54:24.790Z,98651.81
2022-11-17T04:56:52.783Z,98651.41
2022-11-17T04:59:19.771Z,98637.59
2022-11-17T05:01:47.107Z,98627.06
2022-11-17T05:04:35.813Z,98641.75
2022-11-17T05:07:02.769Z,98646.28
2022-11-17T05:09:29.426Z,98652.69
2022-11-17T05:12:14.532Z,98645.34
2022-11-17T05:14:41.199Z,98630.53
2022-11-17T05:17:11.819Z,98661.69
2022-11-17T05:19:44.535Z,98661.56
2022-11-17T05:22:31.790Z,98639.81
2022-11-17T05:24:58.481Z,98650.47
2022-11-17T05:27:26.239Z,98651.72
2022-11-17T05:29:53.100Z,98671.78
2022-11-17T05:32:19.878Z,98662.72
2022-11-17T05:34:46.603Z,98657.47
2022-11-17T05:37:13.527Z,98657.25
2022-11-17T05:39:40.253Z,98656.31
2022-11-17T05:42:07.072Z,98636.91
2022-11-17T05:44:33.923Z,98631.75
2022-11-17T05:47:00.591Z,98653.34
2022-11-17T05:49:27.236Z,98616.66
2022-11-17T05:51:53.881Z,98663.13
2022-11-17T05:54:20.722Z,98670.94
2022-11-17T05:56:55.650Z,98693.66
2022-11-17T05:59:36.656Z,98687.66
2022-11-17T06:02:08.624Z,98695.78
2022-11-17T06:04:35.601Z,98687.47
2022-11-17T06:07:02.886Z,98698.72
2022-11-17T06:09:33.231Z,98673.66
2022-11-17T06:12:05.641Z,98695.56
2022-11-17T06:14:33.169Z,98700.91
2022-11-17T06:17:09.574Z,98701.56
2022-11-17T06:19:43.963Z,98723.81
2022-11-17T06:22:12.767Z,98727.28
2022-11-17T06:24:43.067Z,98733.22
2022-11-17T06:27:14.624Z,98736.97
2022-11-17T06:29:44.914Z,98731.88
2022-11-17T06:32:17.738Z,98730.47
2022-11-17T06:34:51.924Z,98736.63
2022-11-17T06:37:22.059Z,98727.34
2022-11-17T06:39:48.858Z,98714.44
2022-11-17T06:42:15.561Z,98720.59
2022-11-17T06:44:42.398Z,98707.59
2022-11-17T06:47:09.084Z,98686.22
2022-11-17T06:49:35.838Z,98709.31
2022-11-17T06:52:02.571Z,98697.78
2022-11-17T06:54:29.406Z,98707.34
2022-11-17T06:56:56.173Z,98719.59
2022-11-17T06:59:23.013Z,98730.19
2022-11-17T07:01:50.105Z,98726.69
2022-11-17T07:04:17.086Z,98705.47
2022-11-17T07:06:43.878Z,98719.28
2022-11-17T07:09:10.620Z,98710.19
2022-11-17T07:11:37.665Z,98740.19
2022-11-17T07:14:04.452Z,98718.03
2022-11-17T07:16:32.781Z,98722.91
2022-11-17T07:18:59.975Z,98760.06
2022-11-17T07:21:26.797Z,98709.94
2022-11-17T07:23:53.612Z,98715.38
2022-11-17T07:26:20.491Z,98747.84
2022-11-17T07:28:47.332Z,98743.84
2022-11-17T07:31:14.314Z,98753.28
2022-11-17T07:33:41.455Z,98733.84
2022-11-17T07:36:11.642Z,98732.91
2022-11-17T07:38:40.556Z,98760.25
2022-11-17T07:41:09.914Z,98739.13
2022-11-17T07:43:37.382Z,98760.53
2022-11-17T07:46:05.814Z,98755.06
2022-11-17T07:48:33.567Z,98780.00
2022-11-17T07:51:01.436Z,98786.97
2022-11-17T07:53:29.034Z,98725.75
2022-11-17T07:55:56.135Z,98762.91
2022-11-17T07:58:25.477Z,98734.22
2022-11-17T08:00:52.325Z,98742.28
2022-11-17T08:03:19.174Z,98737.50
2022-11-17T08:05:46.024Z,98749.00
2022-11-17T08:08:13.719Z,98752.56
2022-11-17T08:10:40.902Z,98764.06
2022-11-17T08:13:07.838Z,98800.19
2022-11-17T08:15:34.983Z,98747.63
2022-11-17T08:18:03.378Z,98800.16
2022-11-17T08:20:30.452Z,98808.44
2022-11-17T08:22:57.541Z,98798.69
2022-11-17T08:25:26.933Z,98781.66
2022-11-17T08:27:58.257Z,98785.94
2022-11-17T08:30:25.919Z,98793.50
2022-11-17T08:32:54.671Z,98750.22
2022-11-17T08:35:25.704Z,98778.16
2022-11-17T08:37:53.341Z,98790.78
2022-11-17T08:40:20.316Z,98780.44
2022-11-17T08:42:57.521Z,98781.34
2022-11-17T08:45:27.412Z,98786.75
2022-11-17T08:47:55.658Z,98768.53
2022-11-17T08:50:22.434Z,98789.25
2022-11-17T08:52:49.285Z,98815.16
2022-11-17T08:55:16.107Z,98788.00
2022-11-17T08:57:42.866Z,98842.78
2022-11-17T09:00:10.617Z,98798.72
2022-11-17T09:02:38.238Z,98815.16
2022-11-17T09:05:05.600Z,98823.31
2022-11-17T09:07:35.834Z,98798.78
2022-11-17T09:10:04.432Z,98771.75
2022-11-17T09:12:31.160Z,98805.06
2022-11-17T09:14:57.858Z,98809.09
2022-11-17T09:17:24.574Z,98823.97
2022-11-17T09:19:51.411Z,98815.22
2022-11-17T09:22:18.209Z,98816.06
2022-11-17T09:24:44.862Z,98845.84
2022-11-17T09:27:11.672Z,98817.28
2022-11-17T09:29:38.351Z,98814.25
2022-11-17T09:32:05.340Z,98833.47
2022-11-17T09:34:32.181Z,98798.00
2022-11-17T09:36:58.986Z,98826.69
2022-11-17T09:39:25.720Z,98820.69
2022-11-17T09:41:55.090Z,98828.75
2022-11-17T09:44:27.879Z,98830.81
2022-11-17T09:46:57.569Z,98862.06
2022-11-17T09:49:56.945Z,98856.94
2022-11-17T09:52:59.239Z,98844.06
2022-11-17T09:55:35.866Z,98876.09
2022-11-17T09:58:14.470Z,98870.94
2022-11-17T10:00:43.760Z,98855.31
2022-11-17T10:03:20.043Z,98845.78
2022-11-17T10:05:48.087Z,98857.69
2022-11-17T10:08:47.390Z,98822.78
2022-11-17T10:11:35.317Z,98855.94
2022-11-17T10:14:08.194Z,98880.81
2022-11-17T10:16:36.973Z,98817.50
2022-11-17T10:19:34.683Z,98871.56
2022-11-17T10:22:05.113Z,98877.78
2022-11-17T10:24:35.014Z,98892.97
2022-11-17T10:27:24.749Z,98891.75
2022-11-17T10:30:20.675Z,98910.34
2022-11-17T10:32:55.708Z,98871.06
2022-11-17T10:35:25.213Z,98861.50
2022-11-17T10:38:20.950Z,98884.44
2022-11-17T10:40:50.762Z,98873.91
2022-11-17T10:43:35.141Z,98895.22
2022-11-17T10:46:15.852Z,98906.13
2022-11-17T10:49:05.168Z,98898.34
2022-11-17T10:51:33.865Z,98878.66
2022-11-17T10:54:15.956Z,98899.84
2022-11-17T10:56:49.893Z,98880.53
2022-11-17T10:59:30.429Z,98883.75
2022-11-17T11:01:58.339Z,98902.75
2022-11-17T11:04:42.093Z,98901.50
2022-11-17T11:07:28.690Z,98897.94
2022-11-17T11:10:18.218Z,98912.09
2022-11-17T11:12:51.187Z,98856.84
2022-11-17T11:15:22.887Z,98918.72
2022-11-17T11:17:50.961Z,98908.06
2022-11-17T11:20:31.329Z,98885.84
2022-11-17T11:23:09.884Z,98881.47
2022-11-17T11:25:50.963Z,98892.75
2022-11-17T11:28:38.095Z,98928.09
2022-11-17T11:31:46.983Z,98906.63
2022-11-17T11:34:45.255Z,98920.19
2022-11-17T11:37:13.672Z,98908.91
2022-11-17T11:40:10.524Z,98919.78
2022-11-17T11:42:56.586Z,98934.63
2022-11-17T11:45:36.771Z,98929.97
2022-11-17T11:48:12.996Z,98918.88
2022-11-17T11:50:51.628Z,98930.06
2022-11-17T11:53:31.031Z,98884.13
2022-11-17T11:56:12.294Z,98901.66
2022-11-17T11:58:46.754Z,98894.84
2022-11-17T12:01:17.309Z,98892.88
2022-11-17T12:04:16.458Z,98915.63
2022-11-17T12:07:14.066Z,98930.38
2022-11-17T12:09:55.713Z,98921.41
2022-11-17T12:12:35.710Z,98895.47
2022-11-17T12:15:21.115Z,98916.94
2022-11-17T12:18:09.452Z,98926.63
2022-11-17T12:20:47.478Z,98918.03
2022-11-17T12:23:29.376Z,98933.06
2022-11-17T12:25:58.440Z,98928.47
2022-11-17T12:28:41.973Z,98913.75
2022-11-17T12:31:27.384Z,98919.28
2022-11-17T12:33:54.030Z,98915.63
2022-11-17T12:36:29.843Z,98909.09
2022-11-17T12:39:18.059Z,98898.09
2022-11-17T12:41:54.561Z,98903.66
2022-11-17T12:44:44.261Z,98915.06
2022-11-17T12:47:17.156Z,98915.63
2022-11-17T12:49:51.048Z,98876.25
2022-11-17T12:52:46.686Z,98903.22
2022-11-17T12:55:24.337Z,98893.03
2022-11-17T12:57:59.319Z,98885.69
2022-11-17T13:00:28.801Z,98879.44
2022-11-17T13:03:11.860Z,98903.13
2022-11-17T13:05:38.616Z,98888.56
2022-11-17T13:08:18.733Z,98900.59
2022-11-17T13:10:45.370Z,98882.09
2022-11-17T13:13:21.666Z,98911.03
2022-11-17T13:15:54.568Z,98906.28
2022-11-17T13:18:38.253Z,98902.41
2022-11-17T13:21:17.682Z,98889.84
2022-11-17T13:23:45.429Z,98868.06
2022-11-17T13:26:21.853Z,98913.19
2022-11-17T13:29:01.901Z,98856.78
2022-11-17T13:31:28.941Z,98891.25
2022-11-17T13:34:10.329Z,98897.34
2022-11-17T13:36:37.193Z,98875.97
2022-11-17T13:39:03.982Z,98861.56
2022-11-17T13:41:40.159Z,98891.31
2022-11-17T13:44:12.772Z,98891.75
2022-11-17T13:46:39.768Z,98870.03
2022-11-17T13:49:32.640Z,98907.50
2022-11-17T13:51:59.553Z,98899.50
2022-11-17T13:54:26.515Z,98910.56
2022-11-17T13:57:25.983Z,98909.09
2022-11-17T13:59:53.832Z,98866.56
2022-11-17T14:02:20.511Z,98891.38
2022-11-17T14:05:13.425Z,98919.72
2022-11-17T14:07:41.708Z,98871.75
2022-11-17T14:10:20.342Z,98919.94
2022-11-17T14:12:48.678Z,98917.97
2022-11-17T14:15:42.111Z,98922.47
2022-11-17T14:18:29.680Z,98909.41
2022-11-17T14:21:11.635Z,98910.47
2022-11-17T14:23:38.929Z,98920.25
2022-11-17T14:26:06.361Z,98920.88
2022-11-17T14:28:33.202Z,98893.16
2022-11-17T14:31:00.112Z,98915.88
2022-11-17T14:33:28.165Z,98860.66
2022-11-17T14:35:58.516Z,98871.19
2022-11-17T14:38:25.719Z,98892.03
2022-11-17T14:40:53.338Z,98878.94
2022-11-17T14:43:21.454Z,98925.94
2022-11-17T14:45:49.019Z,98912.25
2022-11-17T14:48:19.258Z,98928.47
2022-11-17T14:50:47.431Z,98851.28
2022-11-17T14:53:14.374Z,98902.44
2022-11-17T14:55:41.020Z,98882.66
2022-11-17T14:58:07.855Z,98894.38
2022-11-17T15:00:34.558Z,98900.22
2022-11-17T15:03:01.358Z,98929.50
2022-11-17T15:05:28.252Z,98897.38
2022-11-17T15:07:56.742Z,98904.34
2022-11-17T15:10:23.898Z,98916.59
2022-11-17T15:12:50.773Z,98893.25
2022-11-17T15:15:18.244Z,98900.91
2022-11-17T15:17:45.043Z,98887.25
2022-11-17T15:20:12.109Z,98918.56
2022-11-17T15:22:39.016Z,98889.16
2022-11-17T15:25:06.278Z,98942.03
2022-11-17T15:27:32.961Z,98910.97
2022-11-17T15:29:59.714Z,98872.09
2022-11-17T15:32:26.450Z,98924.78
2022-11-17T15:34:53.178Z,98924.31
2022-11-17T15:37:19.862Z,98897.81
2022-11-17T15:39:46.558Z,98875.34
2022-11-17T15:42:13.248Z,98887.50
2022-11-17T15:44:40.011Z,98913.47
2022-11-17T15:47:06.758Z,98926.28
2022-11-17T15:49:33.432Z,98921.25
2022-11-17T15:52:00.170Z,98898.50
2022-11-17T15:54:26.962Z,98955.97
2022-11-17T15:56:53.747Z,98888.50
2022-11-17T15:59:20.791Z,98927.41
2022-11-17T16:01:47.820Z,98917.34
2022-11-17T16:04:18.424Z,98938.16
2022-11-17T16:06:46.682Z,98952.00
2022-11-17T16:09:14.832Z,98941.13
2022-11-17T16:11:42.007Z,98892.25
2022-11-17T16:14:09.377Z,98902.91
2022-11-17T16:16:38.106Z,98953.56
2022-11-17T16:19:05.643Z,98954.66
2022-11-17T16:21:32.408Z,98895.16
2022-11-17T16:24:00.937Z,98947.56
2022-11-17T16:26:28.920Z,98935.63
2022-11-17T16:29:06.823Z,98930.97
2022-11-17T16:31:35.954Z,98901.69
2022-11-17T16:34:05.802Z,98895.38
2022-11-17T16:36:36.830Z,98938.91
2022-11-17T16:39:06.327Z,98950.13
2022-11-17T16:41:35.771Z,98916.03
2022-11-17T16:44:06.206Z,98950.69
2022-11-17T16:46:32.933Z,98889.69
2022-11-17T16:49:06.030Z,98928.75
2022-11-17T16:51:33.422Z,98883.31
2022-11-17T16:54:02.967Z,98930.13
2022-11-17T16:56:30.251Z,98929.88
2022-11-17T16:58:57.470Z,98957.69
2022-11-17T17:01:27.011Z,98943.41
2022-11-17T17:03:58.646Z,98937.78
2022-11-17T17:06:26.326Z,98907.25
2022-11-17T17:08:58.083Z,98897.34
2022-11-17T17:11:25.223Z,98921.25
2022-11-17T17:13:51.875Z,98912.41
2022-11-17T17:16:20.243Z,98958.22
2022-11-17T17:18:46.915Z,98907.44
2022-11-17T17:21:17.483Z,98969.69
2022-11-17T17:23:45.792Z,98914.44
2022-11-17T17:26:16.732Z,98970.03
2022-11-17T17:28:45.280Z,98948.28
2022-11-17T17:31:20.760Z,98923.28
2022-11-17T17:33:48.440Z,98926.16
2022-11-17T17:36:18.023Z,98941.47
2022-11-17T17:38:48.839Z,98922.06
2022-11-17T17:41:19.778Z,98975.66
2022-11-17T17:43:47.518Z,98972.91
2022-11-17T17:46:17.455Z,98932.97
2022-11-17T17:48:45.554Z,98941.53
2022-11-17T17:51:18.638Z,98946.19
2022-11-17T17:53:45.691Z,98943.59
2022-11-17T17:56:14.022Z,98932.16
2022-11-17T17:58:41.517Z,98924.47
2022-11-17T18:01:19.831Z,98977.47
2022-11-17T18:03:48.302Z,98943.41
2022-11-17T18:06:16.887Z,98982.09
2022-11-17T18:08:43.835Z,98931.16
2022-11-17T18:11:13.413Z,98962.91
2022-11-17T18:13:42.549Z,99001.88
2022-11-17T18:16:12.058Z,98965.16
2022-11-17T18:18:39.355Z,98944.13
2022-11-17T18:21:08.681Z,98986.94
2022-11-17T18:23:36.013Z,98986.97
2022-11-17T18:26:10.693Z,99008.84
2022-11-17T18:28:39.580Z,98980.72
2022-11-17T18:31:08.092Z,98964.13
2022-11-17T18:33:35.542Z,98948.22
2022-11-17T18:36:07.161Z,98957.88
2022-11-17T18:38:36.068Z,98935.63
2022-11-17T18:41:08.495Z,98976.78
2022-11-17T18:43:36.361Z,99001.94
2022-11-17T18:46:08.892Z,98948.34
2022-11-17T18:48:37.507Z,98981.31
2022-11-17T18:51:22.245Z,98975.66
2022-11-17T18:53:50.343Z,98984.94
2022-11-17T18:56:20.091Z,98979.66
2022-11-17T18:58:47.227Z,98997.88
2022-11-17T19:01:18.707Z,99023.34
2022-11-17T19:03:48.376Z,99009.44
2022-11-17T19:06:16.681Z,99010.63
2022-11-17T19:08:43.428Z,99019.69
2022-11-17T19:11:11.837Z,99020.16
2022-11-17T19:13:40.013Z,98966.78
2022-11-17T19:16:09.712Z,98983.84
2022-11-17T19:18:36.996Z,99000.41
2022-11-17T19:21:14.949Z,98964.03
2022-11-17T19:23:49.540Z,98988.31
2022-11-17T19:26:24.591Z,99013.91
2022-11-17T19:28:58.969Z,98975.09
2022-11-17T19:31:26.354Z,98945.47
2022-11-17T19:33:53.508Z,99001.41
2022-11-17T19:36:22.487Z,98970.56
2022-11-17T19:38:50.976Z,98997.47
2022-11-17T19:41:20.286Z,98976.19
2022-11-17T19:43:47.331Z,98953.97
2022-11-17T19:46:16.643Z,99005.66
2022-11-17T19:48:44.315Z,99008.34
2022-11-17T19:51:15.837Z,98965.81
2022-11-17T19:53:42.961Z,98996.25
2022-11-17T19:56:10.138Z,98975.22
2022-11-17T19:58:36.832Z,98946.34
2022-11-17T20:01:19.832Z,99004.56
2022-11-17T20:03:47.323Z,99016.38
2022-11-17T20:06:17.199Z,98993.53
2022-11-17T20:08:44.446Z,98929.63
2022-11-17T20:11:22.822Z,98990.78
2022-11-17T20:13:50.166Z,98942.38
2022-11-17T20:16:21.474Z,98979.56
2022-11-17T20:18:56.432Z,98984.78
2022-11-17T20:21:24.516Z,98986.66
2022-11-17T20:23:51.292Z,99001.63
2022-11-17T20:26:30.157Z,98994.63
2022-11-17T20:28:58.011Z,98986.56
2022-11-17T20:31:27.290Z,99008.66
2022-11-17T20:33:57.623Z,99002.22
2022-11-17T20:36:24.462Z,98986.81
2022-11-17T20:38:52.999Z,99005.09
2022-11-17T20:41:21.285Z,99009.28
2022-11-17T20:43:49.326Z,99015.78
2022-11-17T20:46:16.675Z,99021.66
2022-11-17T20:48:43.777Z,99022.84
2022-11-17T20:51:13.190Z,99011.53
2022-11-17T20:53:41.385Z,99016.84
2022-11-17T20:56:10.334Z,99014.34
2022-11-17T20:58:37.940Z,98998.94
2022-11-17T21:01:16.724Z,98984.28
2022-11-17T21:03:43.903Z,99005.22
2022-11-17T21:06:11.339Z,99005.22
2022-11-17T21:08:39.990Z,99013.78
2022-11-17T21:11:09.745Z,98990.66
2022-11-17T21:13:37.778Z,98992.53
2022-11-17T21:16:09.585Z,99015.59
2022-11-17T21:18:38.189Z,99011.84
2022-11-17T21:21:09.131Z,99016.75
2022-11-17T21:23:37.683Z,99004.97
2022-11-17T21:26:07.079Z,99010.19
2022-11-17T21:28:34.953Z,99006.63
2022-11-17T21:31:12.920Z,99025.13
2022-11-17T21:33:40.442Z,99009.47
2022-11-17T21:36:15.668Z,99007.41
2022-11-17T21:38:44.254Z,99021.47
2022-11-17T21:41:14.301Z,99016.16
2022-11-17T21:43:43.110Z,99023.34
2022-11-17T21:46:12.633Z,99012.97
2022-11-17T21:48:39.916Z,99010.09
2022-11-17T21:51:13.771Z,99010.53
2022-11-17T21:53:40.695Z,98976.41
2022-11-17T21:56:07.810Z,98965.66
2022-11-17T21:58:34.937Z,99023.53
2022-11-17T22:01:10.591Z,99003.66
2022-11-17T22:03:38.341Z,99013.00
2022-11-17T22:06:25.991Z,99014.47
2022-11-17T22:08:54.474Z,99003.06
2022-11-17T22:11:36.376Z,99011.00
2022-11-17T22:14:14.393Z,99015.03
2022-11-17T22:16:43.526Z,99013.06
2022-11-17T22:19:11.273Z,99005.22
2022-11-17T22:21:39.079Z,99012.44
2022-11-17T22:24:07.442Z,98999.19
2022-11-17T22:26:37.107Z,99007.41
2022-11-17T22:29:05.727Z,98989.31
2022-11-17T22:31:32.438Z,99005.81
2022-11-17T22:33:59.121Z,99013.56
2022-11-17T22:36:25.869Z,99000.59
2022-11-17T22:38:53.414Z,99013.56
2022-11-17T22:41:21.766Z,99006.47
2022-11-17T22:43:53.156Z,99014.78
2022-11-17T22:46:21.798Z,99016.84
2022-11-17T22:48:48.691Z,98986.31
2022-11-17T22:51:38.700Z,99003.19
2022-11-17T22:54:06.631Z,99014.22
2022-11-17T22:56:33.970Z,98998.94
2022-11-17T22:59:01.064Z,99005.44
2022-11-17T23:01:27.836Z,99003.69
2022-11-17T23:03:54.648Z,99001.59
2022-11-17T23:06:22.889Z,99018.03
2022-11-17T23:08:50.613Z,99014.78
2022-11-17T23:14:09.670Z,99017.00
2022-11-17T23:16:37.646Z,99005.91
2022-11-17T23:19:05.627Z,99009.47
2022-11-17T23:21:32.337Z,98978.19
2022-11-17T23:23:59.029Z,99022.72
2022-11-17T23:26:25.655Z,99001.88
2022-11-17T23:28:52.546Z,99015.50
2022-11-17T23:31:19.483Z,99009.56
2022-11-17T23:33:47.798Z,99019.09
2022-11-17T23:36:14.449Z,99024.84
2022-11-17T23:38:41.207Z,99002.75
2022-11-17T23:41:10.598Z,99016.28
2022-11-17T23:43:37.305Z,99023.09
2022-11-17T23:46:13.326Z,99030.44
2022-11-17T23:48:40.948Z,99044.09
2022-11-17T23:51:13.006Z,99020.84
2022-11-17T23:53:39.785Z,98986.28
2022-11-17T23:56:07.630Z,99054.88
2022-11-17T23:58:34.605Z,99024.81
